createdAt,value
2022-12-03T00:00:31.696Z,32.42
2022-12-03T00:02:58.554Z,32.03
2022-12-03T00:05:25.390Z,33.47
2022-12-03T00:07:52.252Z,33.75
2022-12-03T00:10:19.217Z,34.88
2022-12-03T00:12:46.044Z,30.63
2022-12-03T00:15:13.125Z,29.08
2022-12-03T00:17:40.036Z,35.08
2022-12-03T00:20:08.727Z,32.63
2022-12-03T00:22:35.611Z,30.45
2022-12-03T00:25:02.448Z,32.08
2022-12-03T00:27:29.198Z,31.95
2022-12-03T00:29:55.944Z,30.10
2022-12-03T00:32:22.780Z,29.92
2022-12-03T00:34:49.532Z,32.75
2022-12-03T00:37:16.361Z,29.88
2022-12-03T00:39:43.138Z,28.52
2022-12-03T00:42:09.949Z,29.55
2022-12-03T00:44:36.687Z,30.70
2022-12-03T00:47:03.520Z,30.40
2022-12-03T00:49:30.779Z,30.92
2022-12-03T00:51:57.516Z,31.08
2022-12-03T00:54:30.103Z,28.98
2022-12-03T00:56:58.534Z,30.00
2022-12-03T00:59:25.607Z,30.25
2022-12-03T01:01:52.418Z,31.13
2022-12-03T01:04:19.268Z,29.55
2022-12-03T01:06:46.123Z,30.55
2022-12-03T01:09:12.879Z,26.65
2022-12-03T01:11:39.765Z,27.60
2022-12-03T01:14:15.874Z,27.83
2022-12-03T01:16:43.344Z,30.13
2022-12-03T01:19:11.199Z,30.35
2022-12-03T01:21:38.077Z,30.38
2022-12-03T01:24:05.345Z,29.25
2022-12-03T01:26:32.057Z,28.67
2022-12-03T01:28:58.850Z,28.40
2022-12-03T01:31:44.163Z,28.30
2022-12-03T01:34:10.973Z,29.33
2022-12-03T01:36:37.854Z,30.50
2022-12-03T01:39:05.157Z,29.00
2022-12-03T01:41:33.123Z,29.45
2022-12-03T01:44:00.841Z,29.85
2022-12-03T01:46:37.824Z,32.55
2022-12-03T01:49:04.862Z,33.97
2022-12-03T01:51:31.828Z,35.47
2022-12-03T01:53:59.791Z,32.22
2022-12-03T01:56:26.980Z,30.80
2022-12-03T02:01:27.825Z,28.45
2022-12-03T02:03:54.769Z,32.10
2022-12-03T02:06:25.926Z,30.98
2022-12-03T02:08:58.730Z,27.67
2022-12-03T02:11:36.115Z,29.90
2022-12-03T02:14:07.390Z,30.13
2022-12-03T02:16:37.161Z,29.17
2022-12-03T02:19:08.204Z,31.70
2022-12-03T02:22:04.930Z,30.05
2022-12-03T02:24:46.143Z,32.70
2022-12-03T02:27:12.972Z,29.13
2022-12-03T02:29:39.708Z,30.35
2022-12-03T02:32:06.438Z,31.48
2022-12-03T02:34:42.569Z,28.13
2022-12-03T02:37:13.591Z,26.63
2022-12-03T02:39:44.185Z,31.10
2022-12-03T02:42:29.882Z,28.95
2022-12-03T02:45:03.613Z,32.40
2022-12-03T02:47:34.899Z,32.08
2022-12-03T02:50:02.145Z,29.33
2022-12-03T02:52:28.943Z,27.20
2022-12-03T02:54:55.989Z,28.02
2022-12-03T02:57:22.916Z,28.10
2022-12-03T02:59:50.027Z,27.80
2022-12-03T03:02:17.234Z,27.55
2022-12-03T03:04:45.049Z,28.77
2022-12-03T03:07:11.937Z,28.77
2022-12-03T03:09:38.784Z,28.27
2022-12-03T03:12:05.892Z,27.25
2022-12-03T03:14:33.420Z,32.40
2022-12-03T03:17:00.156Z,26.95
2022-12-03T03:19:27.647Z,28.73
2022-12-03T03:21:54.531Z,28.60
2022-12-03T03:24:22.203Z,28.27
2022-12-03T03:26:49.760Z,30.08
2022-12-03T03:29:16.654Z,27.90
2022-12-03T03:31:45.868Z,27.23
2022-12-03T03:34:13.721Z,26.90
2022-12-03T03:36:40.908Z,30.40
2022-12-03T03:39:08.138Z,27.58
2022-12-03T03:41:35.551Z,28.73
2022-12-03T03:44:05.102Z,30.58
2022-12-03T03:46:33.490Z,36.35
2022-12-03T03:49:00.574Z,29.65
2022-12-03T03:51:27.573Z,30.77
2022-12-03T03:53:54.887Z,28.42
2022-12-03T03:56:21.954Z,30.05
2022-12-03T03:58:48.691Z,29.25
2022-12-03T04:01:17.032Z,30.13
2022-12-03T04:03:43.882Z,29.05
2022-12-03T04:06:11.332Z,30.13
2022-12-03T04:08:38.080Z,28.35
2022-12-03T04:11:23.296Z,31.23
2022-12-03T04:13:49.980Z,30.20
2022-12-03T04:16:16.760Z,30.73
2022-12-03T04:18:43.560Z,27.73
2022-12-03T04:21:40.211Z,28.50
2022-12-03T04:24:08.487Z,28.48
2022-12-03T04:26:53.616Z,27.30
2022-12-03T04:29:20.904Z,24.48
2022-12-03T04:32:06.099Z,26.08
2022-12-03T04:34:52.182Z,28.02
2022-12-03T04:37:19.268Z,24.48
2022-12-03T04:39:46.034Z,25.70
2022-12-03T04:42:12.775Z,21.77
2022-12-03T04:44:39.557Z,24.50
2022-12-03T04:47:15.186Z,23.58
2022-12-03T04:49:44.483Z,25.30
2022-12-03T04:52:12.987Z,27.07
2022-12-03T04:54:40.579Z,24.50
2022-12-03T04:57:08.476Z,25.02
2022-12-03T04:59:36.150Z,26.20
2022-12-03T05:02:05.306Z,25.50
2022-12-03T05:04:32.263Z,27.30
2022-12-03T05:06:58.961Z,28.15
2022-12-03T05:09:25.644Z,23.92
2022-12-03T05:11:52.399Z,25.35
2022-12-03T05:14:19.085Z,26.17
2022-12-03T05:16:45.888Z,22.42
2022-12-03T05:19:12.687Z,23.25
2022-12-03T05:21:39.379Z,25.73
2022-12-03T05:24:06.471Z,28.17
2022-12-03T05:26:33.266Z,24.92
2022-12-03T05:29:00.022Z,29.15
2022-12-03T05:31:26.771Z,25.08
2022-12-03T05:33:54.728Z,26.67
2022-12-03T05:36:21.479Z,25.42
2022-12-03T05:38:48.397Z,25.30
2022-12-03T05:41:33.962Z,26.67
2022-12-03T05:44:00.686Z,28.25
2022-12-03T05:46:27.473Z,26.05
2022-12-03T05:48:54.223Z,27.30
2022-12-03T05:51:20.903Z,24.23
2022-12-03T05:53:47.626Z,25.83
2022-12-03T05:56:14.407Z,28.23
2022-12-03T05:58:41.123Z,29.83
2022-12-03T06:01:08.404Z,31.90
2022-12-03T06:03:35.317Z,28.42
2022-12-03T06:06:02.290Z,26.45
2022-12-03T06:08:29.034Z,29.35
2022-12-03T06:10:55.766Z,26.73
2022-12-03T06:13:22.498Z,29.42
2022-12-03T06:15:49.304Z,29.67
2022-12-03T06:18:16.131Z,27.30
2022-12-03T06:20:42.883Z,27.30
2022-12-03T06:23:09.656Z,31.70
2022-12-03T06:25:36.369Z,32.22
2022-12-03T06:28:03.086Z,33.20
2022-12-03T06:30:29.852Z,30.48
2022-12-03T06:32:56.569Z,31.10
2022-12-03T06:35:23.266Z,31.17
2022-12-03T06:37:49.992Z,33.20
2022-12-03T06:40:16.974Z,28.58
2022-12-03T06:42:43.717Z,28.13
2022-12-03T06:45:11.403Z,30.10
2022-12-03T06:47:38.372Z,32.90
2022-12-03T06:50:07.041Z,35.15
2022-12-03T06:52:33.817Z,31.38
2022-12-03T06:55:00.986Z,32.90
2022-12-03T06:57:27.802Z,33.17
2022-12-03T06:59:54.846Z,29.67
2022-12-03T07:02:21.809Z,28.42
2022-12-03T07:04:48.486Z,31.83
2022-12-03T07:07:15.238Z,33.38
2022-12-03T07:09:42.001Z,30.67
2022-12-03T07:12:08.709Z,35.42
2022-12-03T07:14:35.438Z,36.83
2022-12-03T07:17:02.141Z,31.80
2022-12-03T07:19:32.524Z,35.88
2022-12-03T07:22:00.117Z,33.55
2022-12-03T07:24:26.930Z,33.70
2022-12-03T07:26:53.681Z,31.30
2022-12-03T07:29:20.471Z,34.30
2022-12-03T07:31:47.408Z,34.03
2022-12-03T07:34:14.198Z,35.15
2022-12-03T07:36:40.947Z,34.65
2022-12-03T07:39:07.787Z,37.08
2022-12-03T07:41:34.585Z,33.55
2022-12-03T07:44:01.310Z,34.55
2022-12-03T07:46:28.187Z,34.67
2022-12-03T07:48:54.942Z,27.33
2022-12-03T07:51:21.654Z,31.42
2022-12-03T07:53:48.352Z,31.55
2022-12-03T07:56:15.070Z,32.38
2022-12-03T07:58:41.799Z,33.85
2022-12-03T08:01:08.560Z,31.40
2022-12-03T08:03:35.393Z,32.97
2022-12-03T08:06:02.244Z,29.55
2022-12-03T08:08:28.890Z,36.72
2022-12-03T08:10:55.719Z,31.77
2022-12-03T08:13:22.438Z,32.90
2022-12-03T08:15:49.135Z,31.77
2022-12-03T08:18:21.066Z,33.90
2022-12-03T08:20:50.098Z,33.42
2022-12-03T08:23:22.797Z,35.33
2022-12-03T08:25:52.681Z,32.63
2022-12-03T08:28:25.728Z,32.63
2022-12-03T08:31:09.466Z,36.15
2022-12-03T08:33:37.044Z,31.80
2022-12-03T08:36:14.567Z,32.78
2022-12-03T08:38:41.367Z,29.63
2022-12-03T08:41:14.435Z,32.08
2022-12-03T08:43:43.739Z,31.15
2022-12-03T08:46:19.584Z,30.23
2022-12-03T08:48:49.142Z,31.63
2022-12-03T08:51:23.826Z,32.92
2022-12-03T08:53:59.764Z,30.25
2022-12-03T08:56:30.419Z,32.90
2022-12-03T08:59:19.054Z,33.65
2022-12-03T09:01:48.295Z,30.63
2022-12-03T09:04:20.963Z,29.88
2022-12-03T09:06:48.019Z,33.28
2022-12-03T09:09:14.768Z,30.50
2022-12-03T09:11:43.182Z,31.52
2022-12-03T09:14:13.772Z,29.98
2022-12-03T09:16:45.065Z,29.30
2022-12-03T09:19:11.923Z,32.10
2022-12-03T09:21:38.643Z,31.75
2022-12-03T09:24:05.567Z,31.00
2022-12-03T09:26:32.535Z,31.13
2022-12-03T09:28:59.252Z,31.25
2022-12-03T09:31:26.010Z,31.20
2022-12-03T09:33:52.786Z,31.02
2022-12-03T09:36:19.526Z,30.08
2022-12-03T09:38:48.098Z,30.30
2022-12-03T09:41:15.173Z,30.23
2022-12-03T09:46:44.395Z,31.95
2022-12-03T09:49:16.081Z,29.60
2022-12-03T09:51:44.234Z,33.28
2022-12-03T09:54:20.921Z,30.40
2022-12-03T09:56:47.707Z,29.33
2022-12-03T09:59:16.360Z,27.88
2022-12-03T10:01:43.441Z,28.17
2022-12-03T10:04:10.687Z,25.60
2022-12-03T10:06:43.989Z,27.65
2022-12-03T10:09:14.616Z,29.27
2022-12-03T10:11:41.417Z,26.40
2022-12-03T10:14:12.698Z,26.58
2022-12-03T10:16:41.030Z,22.98
2022-12-03T10:19:11.741Z,26.38
2022-12-03T10:21:39.055Z,25.00
2022-12-03T10:24:26.407Z,28.35
2022-12-03T10:26:55.835Z,26.25
2022-12-03T10:29:34.018Z,22.67
2022-12-03T10:32:07.938Z,29.42
2022-12-03T10:34:36.919Z,25.60
2022-12-03T10:37:14.441Z,25.15
2022-12-03T10:39:56.017Z,25.35
2022-12-03T10:42:24.025Z,23.67
2022-12-03T10:45:12.946Z,25.17
2022-12-03T10:47:39.807Z,24.60
2022-12-03T10:50:19.296Z,25.67
2022-12-03T10:52:46.843Z,26.52
2022-12-03T10:55:14.855Z,24.73
2022-12-03T10:57:45.702Z,23.65
2022-12-03T11:00:18.334Z,28.13
2022-12-03T11:02:47.410Z,24.05
2022-12-03T11:05:26.697Z,26.30
2022-12-03T11:07:53.824Z,27.65
2022-12-03T11:10:21.444Z,25.77
2022-12-03T11:13:25.586Z,27.23
2022-12-03T11:15:53.165Z,25.88
2022-12-03T11:18:49.251Z,27.10
2022-12-03T11:21:15.995Z,29.58
2022-12-03T11:23:45.504Z,28.65
2022-12-03T11:26:19.869Z,26.55
2022-12-03T11:28:46.779Z,27.25
2022-12-03T11:31:42.760Z,30.15
2022-12-03T11:34:18.609Z,26.65
2022-12-03T11:37:10.146Z,27.25
2022-12-03T11:39:52.080Z,27.48
2022-12-03T11:42:27.896Z,24.10
2022-12-03T11:45:08.381Z,26.65
2022-12-03T11:47:42.023Z,31.00
2022-12-03T11:50:22.013Z,25.95
2022-12-03T11:53:14.318Z,32.30
2022-12-03T11:55:44.515Z,29.08
2022-12-03T12:00:52.142Z,32.42
2022-12-03T12:03:28.098Z,32.72
2022-12-03T12:06:03.938Z,29.27
2022-12-03T12:08:31.006Z,28.42
2022-12-03T12:10:58.290Z,31.98
2022-12-03T12:13:45.260Z,30.15
2022-12-03T12:16:12.135Z,28.75
2022-12-03T12:18:51.137Z,27.90
2022-12-03T12:21:47.785Z,31.42
2022-12-03T12:24:48.260Z,28.75
2022-12-03T12:27:31.739Z,32.45
2022-12-03T12:30:04.292Z,34.03
2022-12-03T12:32:34.413Z,30.63
2022-12-03T12:37:59.189Z,29.58
2022-12-03T12:40:29.909Z,31.48
2022-12-03T12:42:59.550Z,31.25
2022-12-03T12:45:33.762Z,32.72
2022-12-03T12:48:28.760Z,29.40
2022-12-03T12:51:08.541Z,29.95
2022-12-03T12:53:36.818Z,30.77
2022-12-03T12:56:24.217Z,31.50
2022-12-03T12:58:51.252Z,29.63
2022-12-03T13:01:26.649Z,29.73
2022-12-03T13:03:54.120Z,30.02
2022-12-03T13:06:31.861Z,30.25
2022-12-03T13:09:01.118Z,30.52
2022-12-03T13:11:45.508Z,30.10
2022-12-03T13:14:21.680Z,32.50
2022-12-03T13:16:50.950Z,33.30
2022-12-03T13:19:24.946Z,32.00
2022-12-03T13:21:54.089Z,31.10
2022-12-03T13:24:35.456Z,34.10
2022-12-03T13:27:17.821Z,32.08
2022-12-03T13:29:53.417Z,31.20
2022-12-03T13:32:22.863Z,34.65
2022-12-03T13:34:55.182Z,35.22
2022-12-03T13:37:27.772Z,35.30
2022-12-03T13:40:05.875Z,32.55
2022-12-03T13:42:39.281Z,33.70
2022-12-03T13:45:15.098Z,32.25
2022-12-03T13:47:49.699Z,35.42
2022-12-03T13:50:40.313Z,32.00
2022-12-03T13:53:16.049Z,32.03
2022-12-03T13:55:46.283Z,30.98
2022-12-03T13:58:13.362Z,33.15
2022-12-03T14:00:40.174Z,31.35
2022-12-03T14:03:07.087Z,31.52
2022-12-03T14:05:33.837Z,31.48
2022-12-03T14:08:03.376Z,30.63
2022-12-03T14:10:30.602Z,32.55
2022-12-03T14:12:57.903Z,33.00
2022-12-03T14:15:27.644Z,31.55
2022-12-03T14:17:54.390Z,29.42
2022-12-03T14:20:21.923Z,31.83
2022-12-03T14:22:48.705Z,30.38
2022-12-03T14:25:15.483Z,34.28
2022-12-03T14:27:42.208Z,33.55
2022-12-03T14:30:09.764Z,34.13
2022-12-03T14:32:36.484Z,32.00
2022-12-03T14:35:08.324Z,32.40
2022-12-03T14:37:36.802Z,30.65
2022-12-03T14:40:06.993Z,32.88
2022-12-03T14:45:00.331Z,25.52
2022-12-03T14:47:27.011Z,28.13
2022-12-03T14:49:54.078Z,30.65
2022-12-03T14:52:21.104Z,29.58
2022-12-03T14:54:47.800Z,27.80
2022-12-03T14:57:15.726Z,31.77
2022-12-03T14:59:44.165Z,35.35
2022-12-03T15:02:12.013Z,31.25
2022-12-03T15:04:40.049Z,28.92
2022-12-03T15:07:07.179Z,29.67
2022-12-03T15:09:34.268Z,27.40
2022-12-03T15:12:01.050Z,29.25
2022-12-03T15:14:27.975Z,29.38
2022-12-03T15:16:54.916Z,28.13
2022-12-03T15:19:21.738Z,27.75
2022-12-03T15:21:48.434Z,29.60
2022-12-03T15:24:15.166Z,28.63
2022-12-03T15:26:41.911Z,30.75
2022-12-03T15:29:08.630Z,29.35
2022-12-03T15:31:35.572Z,27.00
2022-12-03T15:34:02.338Z,28.73
2022-12-03T15:36:29.166Z,29.58
2022-12-03T15:38:57.518Z,29.15
2022-12-03T15:41:28.882Z,27.67
2022-12-03T15:43:57.945Z,27.45
2022-12-03T15:46:26.048Z,28.33
2022-12-03T15:48:54.583Z,29.08
2022-12-03T15:51:21.331Z,28.80
2022-12-03T15:53:48.089Z,27.13
2022-12-03T15:56:15.037Z,29.95
2022-12-03T15:58:41.886Z,30.50
2022-12-03T16:01:09.479Z,29.55
2022-12-03T16:03:36.877Z,36.35
2022-12-03T16:06:03.737Z,35.05
2022-12-03T16:08:30.421Z,37.33
2022-12-03T16:10:57.242Z,34.20
2022-12-03T16:13:24.004Z,34.28
2022-12-03T16:15:50.804Z,32.08
2022-12-03T16:18:17.594Z,30.52
2022-12-03T16:20:44.358Z,29.23
2022-12-03T16:23:11.091Z,30.17
2022-12-03T16:25:37.834Z,33.20
2022-12-03T16:28:04.565Z,34.13
2022-12-03T16:30:31.273Z,35.08
2022-12-03T16:32:58.052Z,37.78
2022-12-03T16:35:24.892Z,43.03
2022-12-03T16:37:51.658Z,40.25
2022-12-03T16:40:18.496Z,37.47
2022-12-03T16:42:45.253Z,37.42
2022-12-03T16:45:23.197Z,38.55
2022-12-03T16:47:50.224Z,34.90
2022-12-03T16:50:24.370Z,33.90
2022-12-03T16:52:54.280Z,32.97
2022-12-03T16:55:20.981Z,33.22
2022-12-03T16:57:47.734Z,39.67
2022-12-03T17:00:15.286Z,37.03
2022-12-03T17:02:42.131Z,37.00
2022-12-03T17:05:08.926Z,39.65
2022-12-03T17:07:35.715Z,37.42
2022-12-03T17:10:02.471Z,37.38
2022-12-03T17:12:42.144Z,37.22
2022-12-03T17:15:16.045Z,35.45
2022-12-03T17:17:42.795Z,40.88
2022-12-03T17:20:12.368Z,36.33
2022-12-03T17:22:39.356Z,37.92
2022-12-03T17:25:06.323Z,41.35
2022-12-03T17:27:33.003Z,41.92
2022-12-03T17:29:59.768Z,41.70
2022-12-03T17:32:26.467Z,42.35
2022-12-03T17:34:53.222Z,41.13
2022-12-03T17:37:19.896Z,43.30
2022-12-03T17:39:46.605Z,41.97
2022-12-03T17:42:13.303Z,40.10
2022-12-03T17:44:40.033Z,42.83
2022-12-03T17:47:06.908Z,43.95
2022-12-03T17:49:33.601Z,43.65
2022-12-03T17:52:00.387Z,43.78
2022-12-03T17:54:43.202Z,47.78
2022-12-03T17:57:14.205Z,44.35
2022-12-03T17:59:40.959Z,50.30
2022-12-03T18:02:07.865Z,43.22
2022-12-03T18:04:34.650Z,50.35
2022-12-03T18:07:02.688Z,43.75
2022-12-03T18:09:29.586Z,45.67
2022-12-03T18:11:56.416Z,45.83
2022-12-03T18:14:23.305Z,52.83
2022-12-03T18:16:50.008Z,45.65
2022-12-03T18:19:17.127Z,49.25
2022-12-03T18:21:43.885Z,45.47
2022-12-03T18:24:10.781Z,50.58
2022-12-03T18:26:37.851Z,45.65
2022-12-03T18:29:04.608Z,47.28
2022-12-03T18:31:31.496Z,48.28
2022-12-03T18:33:58.281Z,41.72
2022-12-03T18:36:29.833Z,40.83
2022-12-03T18:38:58.502Z,42.78
2022-12-03T18:41:25.395Z,43.20
2022-12-03T18:43:52.145Z,51.70
2022-12-03T18:46:45.060Z,44.17
2022-12-03T18:49:06.332Z,47.67
2022-12-03T18:51:33.091Z,48.63
2022-12-03T18:53:59.830Z,44.58
2022-12-03T18:56:26.573Z,47.75
2022-12-03T18:58:53.349Z,50.35
2022-12-03T19:01:21.685Z,45.53
2022-12-03T19:03:49.275Z,48.63
2022-12-03T19:06:19.299Z,43.35
2022-12-03T19:08:46.803Z,41.58
2022-12-03T19:11:13.575Z,38.30
2022-12-03T19:13:41.314Z,42.15
2022-12-03T19:16:10.206Z,41.05
2022-12-03T19:18:37.066Z,40.95
2022-12-03T19:21:18.198Z,45.78
2022-12-03T19:24:16.000Z,41.00
2022-12-03T19:26:31.705Z,48.60
2022-12-03T19:28:58.488Z,41.03
2022-12-03T19:31:25.332Z,45.17
2022-12-03T19:33:52.112Z,48.13
2022-12-03T19:36:30.555Z,42.83
2022-12-03T19:38:59.351Z,40.67
2022-12-03T19:41:28.062Z,47.63
2022-12-03T19:43:56.054Z,42.90
2022-12-03T19:46:25.154Z,41.20
2022-12-03T19:48:54.706Z,42.83
2022-12-03T19:51:36.750Z,40.50
2022-12-03T19:54:08.134Z,41.35
2022-12-03T19:56:35.106Z,39.50
2022-12-03T19:59:02.275Z,40.63
2022-12-03T20:01:31.117Z,34.28
2022-12-03T20:04:00.509Z,39.15
2022-12-03T20:06:31.320Z,37.43
2022-12-03T20:09:03.930Z,36.38
2022-12-03T20:11:32.858Z,35.78
2022-12-03T20:14:03.328Z,35.78
2022-12-03T20:16:30.512Z,37.35
2022-12-03T20:19:00.089Z,42.85
2022-12-03T20:21:28.990Z,40.63
2022-12-03T20:23:55.707Z,37.10
2022-12-03T20:26:23.063Z,39.88
2022-12-03T20:28:50.303Z,36.60
2022-12-03T20:31:20.143Z,39.08
2022-12-03T20:33:50.121Z,37.20
2022-12-03T20:36:19.590Z,35.85
2022-12-03T20:38:46.531Z,34.30
2022-12-03T20:41:20.895Z,38.35
2022-12-03T20:43:47.944Z,34.83
2022-12-03T20:46:16.130Z,42.05
2022-12-03T20:48:43.952Z,41.60
2022-12-03T20:51:19.048Z,41.78
2022-12-03T20:53:46.276Z,36.08
2022-12-03T20:56:42.586Z,36.35
2022-12-03T20:59:12.634Z,38.33
2022-12-03T21:01:40.097Z,41.30
2022-12-03T21:04:08.239Z,38.97
2022-12-03T21:06:36.213Z,42.30
2022-12-03T21:09:06.161Z,39.95
2022-12-03T21:11:35.741Z,42.25
2022-12-03T21:14:03.553Z,38.25
2022-12-03T21:19:22.681Z,36.65
2022-12-03T21:21:49.442Z,38.50
2022-12-03T21:24:16.202Z,35.33
2022-12-03T21:26:42.986Z,36.05
2022-12-03T21:29:09.884Z,37.38
2022-12-03T21:31:38.333Z,38.15
2022-12-03T21:34:05.224Z,35.97
2022-12-03T21:36:32.434Z,34.60
2022-12-03T21:38:59.598Z,37.70
2022-12-03T21:41:26.594Z,44.83
2022-12-03T21:43:53.443Z,36.60
2022-12-03T21:47:10.952Z,35.58
2022-12-03T21:49:07.583Z,38.33
2022-12-03T21:51:34.406Z,35.38
2022-12-03T21:54:01.150Z,37.15
2022-12-03T21:56:30.397Z,38.00
2022-12-03T21:58:57.252Z,36.97
2022-12-03T22:01:25.210Z,35.83
2022-12-03T22:03:52.181Z,32.65
2022-12-03T22:06:19.578Z,32.83
2022-12-03T22:08:46.531Z,33.25
2022-12-03T22:11:16.544Z,30.73
2022-12-03T22:13:43.739Z,32.33
2022-12-03T22:16:13.631Z,32.13
2022-12-03T22:18:40.693Z,33.72
2022-12-03T22:21:12.413Z,37.40
2022-12-03T22:23:39.782Z,43.70
2022-12-03T22:26:10.758Z,36.22
2022-12-03T22:28:37.551Z,39.95
2022-12-03T22:31:09.078Z,35.83
2022-12-03T22:33:36.596Z,31.88
2022-12-03T22:36:06.603Z,36.22
2022-12-03T22:38:33.808Z,33.33
2022-12-03T22:41:04.057Z,34.97
2022-12-03T22:43:30.752Z,34.30
2022-12-03T22:45:57.451Z,32.95
2022-12-03T22:48:24.857Z,37.15
2022-12-03T22:50:52.780Z,36.60
2022-12-03T22:53:20.302Z,38.22
2022-12-03T22:55:57.999Z,35.28
2022-12-03T22:58:26.300Z,31.70
2022-12-03T23:00:54.563Z,34.30
2022-12-03T23:03:23.067Z,35.85
2022-12-03T23:05:49.987Z,32.00
2022-12-03T23:08:19.399Z,32.55
2022-12-03T23:10:49.370Z,41.50
2022-12-03T23:13:17.428Z,35.45
2022-12-03T23:15:49.287Z,39.20
2022-12-03T23:18:16.528Z,43.33
2022-12-03T23:20:52.964Z,38.58
2022-12-03T23:23:20.911Z,41.13
2022-12-03T23:26:05.739Z,37.13
2022-12-03T23:28:35.387Z,38.60
2022-12-03T23:31:02.559Z,34.42
2022-12-03T23:33:35.250Z,33.97
2022-12-03T23:36:06.160Z,32.50
2022-12-03T23:38:32.890Z,34.53
2022-12-03T23:41:08.153Z,35.33
2022-12-03T23:43:34.975Z,32.80
2022-12-03T23:46:13.640Z,34.15
2022-12-03T23:48:41.503Z,30.00
2022-12-03T23:51:10.594Z,42.72
2022-12-03T23:53:38.101Z,29.45
2022-12-03T23:56:11.262Z,34.00
2022-12-03T23:58:38.827Z,33.33
